Tiempo atmosférico en la estación meteorológica de Teruel, Teruel (900 m.)



Fecha
DESCASC
Temp. máxima en grados centígrados (hora)
DESCASC
Temp. mínima en grados centígrados (hora)
DESCASC
Temp. media en grados centígrados
DESCASC
Racha de viento máxima en m/sg (hora)
DESCASC
Velocidad máxima media en intervalos de 10 minutos(hora)
DESCASC
Precipitaciones diarias en mm
DESCASC
Precipitaciones de 00:00 a 06:00 en mm
DESCASC
Precipitaciones de 06:00 a 12:00 en mm
DESCASC
Precipitaciones de 12:00 a 18:00 en mm
DESCASC
Precipitaciones de 18:00 a 24:00 en mm
DESCASC
23-05-2020 31 (16:20) 12.3 (06:30) 21.7 8.06 (18:20) 3.61 (18:30) 2.6 0 0 0 2.6
22-05-2020 31.9 (16:20) 10.4 (07:40) 21.1 8.61 (19:40) 3.06 (19:50) 0 0 0 0 0
21-05-2020 31 (17:10) 9.3 (00:00) 20.2 6.94 (18:50) 2.78 (17:30) 0 0 0 0 0
20-05-2020 28.4 (16:30) 8.4 (00:00) 18.4 6.11 (15:40) 2.5 (14:50) 0 0 0 0 0
19-05-2020 26.4 (17:00) 7 (07:30) 16.7 6.39 (14:30) 2.5 (13:00) 0 0 0 0 0
18-05-2020 23.8 (16:50) 5.6 (00:00) 14.7 8.89 (17:40) 3.89 (17:00) 0 0 0 0 0
17-05-2020 21.4 (19:20) 9.2 (00:00) 15.3 6.67 (16:40) 3.33 (19:20) 0 0 0 0 0
16-05-2020 16.5 (16:20) 9 (00:00) 12.8 9.44 (14:40) 4.72 (14:40) 2.8 2.6 0 0.2 0
15-05-2020 16.7 (13:10) 8 (07:20) 12.4 7.22 (14:40) 2.78 (16:30) 11 0 0 7.8 3.2
14-05-2020 12.9 (13:00) 7.2 (00:00) 10 7.5 (14:20) 3.33 (14:20) 7 0 0.2 5.4 1.4
13-05-2020 -- (--) -- (--) -- -- (--) -- (--) 0.2 0.2 0 0 0
12-05-2020 17 (15:30) 6.4 (05:00) 11.7 7.5 (22:00) 4.44 (22:00) 6.2 0 0 1.6 4.6
11-05-2020 19.4 (16:20) 5.3 (00:00) 12.3 10.83 (13:20) 5.83 (13:20) 0 0 0 0 0
10-05-2020 18.2 (16:50) 11 (00:00) 14.6 12.5 (14:20) 6.67 (14:20) 1.4 1.2 0.2 0 0
09-05-2020 24.9 (15:00) 12.1 (07:20) 18.5 8.89 (14:10) 5.28 (13:50) 5 2.4 0 0 2.6
08-05-2020 25.4 (16:40) 7.9 (00:00) 16.6 11.11 (14:00) 5.56 (14:00) 0 0 0 0 0
07-05-2020 25.4 (15:30) 9.9 (00:00) 17.6 10 (15:30) 3.89 (21:20) 0 0 0 0 0
06-05-2020 28.7 (17:00) 6.6 (00:00) 17.7 8.89 (19:10) 4.44 (16:10) 0 0 0 0 0
05-05-2020 26.6 (17:20) 9.8 (00:00) 18.2 9.44 (15:20) 5.28 (15:20) 0 0 0 0 0
04-05-2020 30.6 (16:40) 9.9 (00:00) 20.3 9.17 (14:20) 4.44 (14:10) 0 0 0 0 0
03-05-2020 29.4 (17:20) 8.2 (07:40) 18.8 9.72 (16:00) 5 (15:40) 0 0 0 0 0
02-05-2020 27 (17:40) 9 (07:20) 18 8.61 (17:00) 3.89 (18:00) 0 0 0 0 0
01-05-2020 22.5 (15:40) 6.8 (00:00) 14.7 13.33 (17:10) 6.39 (17:50) 0 0 0 0 0
30-04-2020 19.2 (19:10) 10.6 (04:50) 14.9 16.39 (12:30) 9.17 (12:30) 0 0 0 0 0
29-04-2020 20.2 (16:10) 3.7 (00:00) 12 8.61 (19:10) 5 (20:30) 0 0 0 0 0
28-04-2020 18.4 (17:30) 5.4 (07:20) 11.9 8.33 (13:30) 4.17 (17:30) 0 0 0 0 0
27-04-2020 18.5 (17:20) 9.1 (00:00) 13.8 7.5 (16:10) 3.89 (16:10) 3.8 1.2 1 0 1.6

Gráficas

Temp. máximas Temp. mínimas Temp. medias Precipitaciones Rachas de viento máximas Velocidades máximas media en intervalos de 10 minutos

Datos horarios

Fecha y hora oficial Temperatura (ºC) Velocidad del viento (km/h) Dirección del viento Racha (km/h) Dirección de racha Precipitación (mm) Presión (hPa) Tendencia (hPa) Humedad (%)
2020-05-26 23:00:00 17.7 4 Este 13 Nordeste 0 922.9 -- 67
2020-05-26 22:00:00 18.9 5 Este 18 Sudeste 0 922.3 -- 61
2020-05-26 21:00:00 21 5 Sudeste 19 Este 0 921.9 -- 52
2020-05-26 20:00:00 23.4 8 Nordeste 23 Nordeste 0 921.6 -- 50
2020-05-26 19:00:00 25 6 Este 19 Sudeste 0 921.4 -- 45
2020-05-26 18:00:00 25.5 5 Sudeste 17 Sudeste 0 921.4 -- 41
2020-05-26 17:00:00 25.5 6 Sudeste 17 Sudeste 0 921.5 -- 39
2020-05-26 16:00:00 25.1 6 Sudeste 19 Sur 0 922 -- 38
2020-05-26 15:00:00 24.6 9 Este 22 Este 0 922.5 -- 38
2020-05-26 14:00:00 23.5 5 Sur 17 Sudeste 0 923 -- 38
2020-05-26 13:00:00 22 6 Sudeste 14 Sudoeste 0 923.5 -- 35
2020-05-26 12:00:00 20.9 5 Sudeste 16 Este 0 923.7 -- 38
2020-05-26 11:00:00 19.3 6 Este 19 Este 0 923.6 -- 49
2020-05-26 10:00:00 18.7 5 Este 17 Este 0 923.4 -- 58
2020-05-26 09:00:00 16.6 3 Este 8 Nordeste 0 923.3 -- 83
2020-05-26 08:00:00 14.2 0 Calma 5 Nordeste 0 923.3 -- 88
2020-05-26 07:00:00 13.5 2 Noroeste 5 Oeste 0 923.2 -- 89
2020-05-26 06:00:00 13.4 4 Oeste 5 Oeste 0 922.8 -- 90
2020-05-26 05:00:00 13.9 2 Este 7 Sur 0 922.9 -- 87
2020-05-26 04:00:00 14.3 2 Este 8 Sur 0 922.9 -- 86
2020-05-26 03:00:00 14.5 3 Sudeste 8 Sudeste 0 923 -- 85
2020-05-26 02:00:00 14.1 2 Sudeste 6 Sudoeste 0 923.4 -- 89
2020-05-26 01:00:00 14.5 3 Oeste 6 Oeste 0 923.4 -- 85
2020-05-26 00:00:00 15.3 4 Oeste 8 Norte 0 923.3 -- 80
2020-05-25 23:00:00 16.9 3 Nordeste 17 Este 0 923 -- 74
2020-05-25 22:00:00 17.7 5 Este 17 Este 0 922 -- 70
2020-05-25 21:00:00 20.3 2 Sudeste 17 Sur 0 921.4 -- 59
2020-05-25 20:00:00 20.4 5 Sur 10 Sudoeste 0 921.3 -- 61
2020-05-25 19:00:00 21.1 3 Sur 9 Sur 0 921.6 -- 60
2020-05-25 18:00:00 21.7 5 Sur 13 Sudeste 0 921.6 -- 58
2020-05-25 17:00:00 21.7 5 Sur 15 Sur 0 921.8 -- 57
2020-05-25 16:00:00 21.4 5 Sudeste 16 Sur 0 922.5 -- 58
2020-05-25 15:00:00 20.9 7 Sudeste 17 Sudeste 0 922.9 -- 61
2020-05-25 14:00:00 17.7 6 Este 21 Sudeste 0 923.2 -- 76
2020-05-25 13:00:00 16 5 Sudeste 20 Sudeste 0.6 923.9 -- 84
2020-05-25 12:00:00 16.5 7 Sudeste 20 Sudeste 1.4 923.5 -- 86
2020-05-25 11:00:00 18.9 5 Sudoeste 17 Sur 0 923.1 -- 71
2020-05-25 10:00:00 17.8 7 Sur 15 Sudeste 0 923 -- 74
2020-05-25 09:00:00 16.3 2 Nordeste 7 Nordeste 0 923 -- 82
2020-05-25 08:00:00 15.1 4 Sudeste 7 Sudeste 0 922.7 -- 87
2020-05-25 07:00:00 13.7 2 Sur 4 Sur 0 922.5 -- 92
2020-05-25 06:00:00 13.7 0 Calma 5 Sur 0 922.5 -- 91
2020-05-25 05:00:00 14.4 3 Sur 10 Sudeste 0 922.4 -- 89
2020-05-25 04:00:00 14.7 8 Sur 14 Sur 0 922.7 -- 90
2020-05-25 03:00:00 15 7 Sur 14 Sudoeste 0 923 -- 89
2020-05-25 02:00:00 14.8 5 Sur 13 Sur 0 923.2 -- 89
2020-05-25 01:00:00 15.4 3 Sur 17 Sur 0 923.6 -- 87
2020-05-25 00:00:00 16.5 7 Sur 14 Sur 0 923.4 -- 83
2020-05-24 23:00:00 17.4 4 Sur 12 Sudeste 0 923.3 -- 78
2020-05-24 22:00:00 18.2 4 Este 15 Este 0 922.9 -- 73
2020-05-24 21:00:00 19.8 5 Sudeste 21 Sudeste 0 922.3 -- 70
2020-05-24 20:00:00 22 7 Sudeste 26 Sudeste 0 922 -- 61
2020-05-24 19:00:00 23.3 9 Este 27 Sudeste 0 921.9 -- 58
2020-05-24 18:00:00 22.6 8 Este 22 Sudeste 0 922.2 -- 59
2020-05-24 17:00:00 26 10 Sur 22 Sur 0 922.2 -- 46
2020-05-24 16:00:00 26.7 14 Sudoeste 25 Sur 0 922.5 -- 39
2020-05-24 15:00:00 25.7 13 Sudoeste 21 Sur 0 923 -- 43
2020-05-24 14:00:00 24.7 9 Sudeste 19 Este 0 923.4 -- 59
2020-05-24 13:00:00 23.2 8 Sur 22 Sudoeste 0 923.8 -- 58
2020-05-24 12:00:00 21.7 8 Sur 19 Sur 0 924.2 -- 58
2020-05-24 11:00:00 19.5 8 Sur 18 Sur 0 924.4 -- 65
2020-05-24 10:00:00 18.1 6 Sur 12 Sudoeste 0 924.7 -- 72
2020-05-24 09:00:00 15.1 2 Sur 5 Sudeste 0 924.8 -- 80
2020-05-24 08:00:00 11.9 3 Sudoeste 5 Sudoeste 0 924.8 -- 92
2020-05-24 07:00:00 11.3 3 Oeste 7 Oeste 0 924.5 -- 91
2020-05-24 06:00:00 11.9 4 Oeste 6 Oeste 0 924.3 -- 89
2020-05-24 05:00:00 12.1 4 Noroeste 10 Oeste 0 924.4 -- 88
2020-05-24 04:00:00 12.2 7 Oeste 11 Oeste 0 924.8 -- 86
2020-05-24 03:00:00 12.9 5 Oeste 12 Oeste 0 925 -- 84
2020-05-24 02:00:00 13.5 4 Oeste 13 Oeste 0 924.9 -- 84
2020-05-24 01:00:00 14.1 6 Oeste 16 Oeste 0 925 -- 85
2020-05-24 00:00:00 15 10 Oeste 17 Oeste 0 924.6 -- 82
2020-05-23 23:00:00 18.2 4 Oeste 10 Oeste 0 924 -- 86
2020-05-23 22:00:00 19.4 2 Este 9 Nordeste 0 922.8 -- 82
2020-05-23 21:00:00 20.5 5 Nordeste 13 Nordeste 1 922.5 -- 75
2020-05-23 20:00:00 23 6 Sudeste 28 Este 1.6 921.8 -- 62
2020-05-23 19:00:00 25.4 9 Este 29 Este 0 921.2 -- 50
2020-05-23 18:00:00 28.1 11 Nordeste 26 Este 0 920.9 -- 51
2020-05-23 17:00:00 28.7 10 Nordeste 23 Nordeste 0 920.9 -- 45
2020-05-23 16:00:00 30.2 5 Norte 10 Nordeste 0 921.2 -- 37
2020-05-23 15:00:00 29.4 5 Noroeste 12 Nordeste 0 921.8 -- 37
2020-05-23 14:00:00 29.4 4 Nordeste 13 Oeste 0 922.3 -- 36
2020-05-23 13:00:00 28.1 5 Sur 10 Oeste 0 922.9 -- 35
2020-05-23 12:00:00 26.7 3 Sudeste 11 Este 0 923.3 -- 41
2020-05-23 11:00:00 24 4 Norte 9 Noroeste 0 923.3 -- 46
2020-05-23 10:00:00 21 3 Norte 6 Sudeste 0 923.3 -- 58
2020-05-23 09:00:00 16.6 3 Este 5 Sudoeste 0 923.1 -- 74
2020-05-23 08:00:00 13.1 3 Oeste 5 Oeste 0 923 -- 89
2020-05-23 07:00:00 12.5 0 Calma 3 Nordeste 0 922.6 -- 89
2020-05-23 06:00:00 12.7 3 Oeste 5 Oeste 0 922.6 -- 88
2020-05-23 05:00:00 13.6 0 Calma 5 Nordeste 0 922.7 -- 86
2020-05-23 04:00:00 14.7 2 Este 5 Este 0 922.8 -- 81
2020-05-23 03:00:00 16.1 2 Sudeste 5 Este 0 923 -- 76
2020-05-23 02:00:00 17.3 3 Sudeste 5 Sudeste 0 923.2 -- 71
2020-05-23 01:00:00 18.8 3 Sudeste 9 Sur 0 923.3 -- 65
2020-05-23 00:00:00 19.9 3 Sudeste 9 Este 0 923.2 -- 63
2020-05-22 23:00:00 21.1 4 Sudeste 16 Sudeste 0 922.9 -- 60
2020-05-22 22:00:00 22.1 7 Sur 20 Sudeste 0 922.1 -- 56
2020-05-22 21:00:00 23.8 7 Sudeste 29 Sudeste 0 921.1 -- 48
2020-05-22 20:00:00 25.8 9 Este 31 Sudeste 0 920.3 -- 44
2020-05-22 19:00:00 29.6 10 Sudeste 24 Este 0 919.9 -- 35
2020-05-22 18:00:00 31.3 6 Sudeste 17 Este 0 920.1 -- 26
2020-05-22 17:00:00 31.6 6 Sudeste 22 Sur 0 920.3 -- 28
2020-05-22 16:00:00 31.6 6 Sudeste 16 Sur 0 920.8 -- 25
2020-05-22 15:00:00 31.4 5 Sudeste 14 Sudeste 0 921.3 -- 21
2020-05-22 14:00:00 30 5 Noroeste 12 Oeste 0 921.6 -- 17
2020-05-22 13:00:00 29.1 4 Noroeste 10 Oeste 0 921.7 -- 20
2020-05-22 12:00:00 26.1 5 Sudoeste 9 Sudoeste 0 921.9 -- 35
2020-05-22 11:00:00 23 3 Sur 5 Sudoeste 0 922 -- 47
2020-05-22 10:00:00 19 4 Sudoeste 7 Oeste 0 922.2 -- 64
2020-05-22 09:00:00 15.7 2 Sudoeste 4 Noroeste 0 921.9 -- 75
2020-05-22 08:00:00 11.7 0 Calma 9 Oeste 0 921.6 -- 88
2020-05-22 07:00:00 10.8 0 Calma 5 Norte 0 921 -- 87
2020-05-22 06:00:00 11.1 0 Calma 6 Oeste 0 920.8 -- 88
2020-05-22 05:00:00 12 2 Noroeste 6 Norte 0 920.7 -- 85
2020-05-22 04:00:00 12.4 4 Oeste 5 Oeste 0 920.9 -- 86
2020-05-22 03:00:00 13.4 0 Calma 7 Oeste 0 920.5 -- 83
2020-05-22 02:00:00 14.5 4 Oeste 7 Oeste 0 920.7 -- 79
2020-05-22 01:00:00 15.2 5 Oeste 9 Oeste 0 920.8 -- 76
2020-05-22 00:00:00 17.3 5 Oeste 8 Oeste 0 920.6 2.6 67
2020-05-21 23:00:00 20.5 4 Sudeste 14 Sudeste 0 920.2 -- 51
2020-05-21 22:00:00 21.8 3 Noroeste 17 Este 0 919.1 -- 49
2020-05-21 21:00:00 23.3 8 Este 22 Este 0 918 -- 46
2020-05-21 20:00:00 25.3 7 Este 24 Este 0 917.3 -- 39
2020-05-21 19:00:00 28.2 9 Este 25 Este 0 916.8 -- 36
2020-05-21 18:00:00 30.4 4 Sudeste 19 Sur 0 916.7 -- 29
2020-05-21 17:00:00 30.9 8 Sur 21 Sudeste 0 916.7 -- 25
2020-05-21 16:00:00 30.6 6 Sudeste 20 Este 0 917.1 -- 25
2020-05-21 15:00:00 29.5 5 Sudeste 14 Sur 0 917.5 -- 23
2020-05-21 14:00:00 29 6 Sur 13 Nordeste 0 917.9 -- 22
2020-05-21 13:00:00 28.1 4 Este 19 Sur 0 918 -0.7 19
2020-05-21 12:00:00 25.3 5 Sudeste 14 Sur 0 918.3 -- 40
2020-05-21 11:00:00 22.7 5 Sudeste 9 Este 0 918.5 -- 49
2020-05-21 10:00:00 18.6 3 Sur 6 Norte 0 918.7 -- 61
2020-05-21 09:00:00 15.2 3 Norte 6 Nordeste 0 919 -- 74
2020-05-21 08:00:00 10.9 0 Calma 6 Norte 0 918.7 -- 90
2020-05-21 07:00:00 9.5 2 Norte 5 Nordeste 0 918.1 -- 90
2020-05-21 06:00:00 9.9 3 Noroeste 5 Norte 0 917.8 -- 88
2020-05-21 05:00:00 10.6 2 Norte 7 Norte 0 917.6 -- 84
2020-05-21 04:00:00 12 2 Oeste 9 Nordeste 0 917.5 -- 83
2020-05-21 03:00:00 12.7 2 Norte 8 Norte 0 917.4 -- 82
2020-05-21 02:00:00 13.8 0 Calma 7 Oeste 0 917.5 -- 77
2020-05-21 01:00:00 15.1 6 Oeste 9 Oeste 0 917.3 -- 73
2020-05-21 00:00:00 16.3 7 Oeste 10 Oeste 0 916.9 -- 66
2020-05-20 23:00:00 18.8 3 Nordeste 13 Nordeste 0 916.4 -- 61
2020-05-20 22:00:00 20.1 3 Nordeste 6 Nordeste 0 915.4 -- 48
2020-05-20 21:00:00 23.7 2 Norte 15 Nordeste 0 914.6 -- 34
2020-05-20 20:00:00 26.8 7 Nordeste 15 Nordeste 0 914 -- 24
2020-05-20 19:00:00 27.5 7 Norte 21 Nordeste 0 913.7 -- 22
2020-05-20 18:00:00 27.9 9 Nordeste 19 Nordeste 0 913.6 -- 22
2020-05-20 17:00:00 28.1 6 Norte 18 Norte 0 913.6 -- 25
2020-05-20 16:00:00 27.8 6 Norte 22 Norte 0 913.8 -- 24
2020-05-20 15:00:00 26.9 8 Norte 20 Noroeste 0 914.2 -- 33
2020-05-20 14:00:00 26.4 6 Norte 19 Nordeste 0 914.4 -- 34
2020-05-20 13:00:00 24.4 5 Este 12 Nordeste 0 915 -- 38
2020-05-20 12:00:00 22.6 4 Este 13 Nordeste 0 915.5 -- 44
2020-05-20 11:00:00 19.5 4 Sur 8 Oeste 0 915.7 -- 59
2020-05-20 10:00:00 16.7 3 Sudeste 6 Oeste 0 916 -- 67
2020-05-20 09:00:00 13.2 3 Oeste 6 Norte 0 916.1 -- 77
2020-05-20 08:00:00 9.6 2 Oeste 5 Oeste 0 916.1 -- 93
2020-05-20 07:00:00 8.5 2 Noroeste 6 Nordeste 0 915.8 -- 92
2020-05-20 06:00:00 9.1 2 Noroeste 8 Norte 0 915.6 -- 89
2020-05-20 05:00:00 9.8 3 Norte 5 Norte 0 915.7 -- 89
2020-05-20 04:00:00 10.1 2 Oeste 5 Norte 0 916.1 -- 89
2020-05-20 03:00:00 11.4 3 Oeste 6 Norte 0 916.4 -- 85
2020-05-20 02:00:00 12.2 2 Norte 7 Oeste 0 916.6 -- 83
2020-05-20 01:00:00 13.4 4 Noroeste 8 Noroeste 0 916.8 -- 77
2020-05-20 00:00:00 14.8 2 Norte 10 Oeste 0 916.7 -- 69
2020-05-19 23:00:00 17.1 4 Oeste 6 Oeste 0 916.4 -- 62
2020-05-19 22:00:00 19.4 3 Norte 11 Nordeste 0 915.8 -- 53
2020-05-19 21:00:00 21.8 6 Noroeste 17 Noroeste 0 915.3 -- 42
2020-05-19 20:00:00 23.7 4 Noroeste 15 Nordeste 0 915 -- 35
2020-05-19 19:00:00 24.7 3 Noroeste 12 Nordeste 0 915 -- 34
2020-05-19 18:00:00 24.9 5 Norte 20 Nordeste 0 914.8 -- 31
2020-05-19 17:00:00 26.4 7 Norte 18 Norte 0 915 -- 33
2020-05-19 16:00:00 25.8 7 Norte 19 Oeste 0 915.5 -- 33
2020-05-19 15:00:00 24.5 6 Norte 23 Sudoeste 0 915.8 -- 37
2020-05-19 14:00:00 23.2 9 Noroeste 21 Oeste 0 916.5 -- 40
2020-05-19 13:00:00 21.4 9 Noroeste 20 Noroeste 0 917.1 -- 42
2020-05-19 12:00:00 19.6 5 Sudoeste 11 Oeste 0 917.5 -- 47
2020-05-19 11:00:00 17.2 5 Sur 10 Noroeste 0 917.8 -- 59
2020-05-19 10:00:00 14.9 3 Nordeste 10 Este 0 918 -- 66
2020-05-19 09:00:00 11.5 3 Noroeste 5 Noroeste 0 918.2 -- 77
2020-05-19 08:00:00 8.1 2 Sudoeste 4 Norte 0 918.2 -- 93
2020-05-19 07:00:00 7.3 2 Noroeste 6 Norte 0 918 -- 91
2020-05-19 06:00:00 7.8 2 Noroeste 6 Norte 0 918 -- 90
2020-05-19 05:00:00 8.7 3 Norte 5 Noroeste 0 918.3 -- 90
2020-05-19 04:00:00 9.3 2 Noroeste 8 Norte 0 918.5 -- 87
2020-05-19 03:00:00 10.2 0 Calma 8 Noroeste 0 918.6 -- 86
2020-05-19 02:00:00 11.1 5 Norte 8 Norte 0 919 -- 83
2020-05-19 01:00:00 12.3 4 Norte 9 Oeste 0 919.1 -- 77
2020-05-19 00:00:00 14.3 4 Oeste 8 Oeste 0 919.1 -- 69
2020-05-18 23:00:00 15.3 3 Noroeste 10 Nordeste 0 918.9 -- 64
2020-05-18 22:00:00 16.9 3 Norte 9 Este 0 918 -- 60
2020-05-18 21:00:00 19.3 6 Nordeste 15 Nordeste 0 917.6 -- 46
2020-05-18 20:00:00 22.1 8 Nordeste 19 Nordeste 0 917.4 -- 38
2020-05-18 19:00:00 23 10 Norte 25 Nordeste 0 917.4 -- 34
2020-05-18 18:00:00 23.6 10 Norte 32 Oeste 0 917.3 -- 33
2020-05-18 17:00:00 23.4 14 Noroeste 28 Noroeste 0 917.4 -- 36
2020-05-18 16:00:00 23.4 12 Noroeste 25 Noroeste 0 917.6 -- 34
2020-05-18 15:00:00 23.1 7 Norte 19 Norte 0 918.1 -- 36
2020-05-18 14:00:00 21.4 8 Norte 18 Noroeste 0 918.6 -- 35
2020-05-18 13:00:00 19.8 8 Noroeste 19 Norte 0 919.1 -- 38
2020-05-18 12:00:00 18.5 10 Noroeste 23 Norte 0 919.3 -- 40
2020-05-18 11:00:00 16.5 4 Nordeste 10 Este 0 919.6 -- 59
2020-05-18 10:00:00 13 3 Sudoeste 7 Oeste 0 919.9 -- 75
2020-05-18 09:00:00 9.6 3 Sur 7 Norte 0 920 -- 86
2020-05-18 08:00:00 6.5 3 Norte 7 Oeste 0 919.8 -- 94
2020-05-18 07:00:00 5.6 4 Oeste 5 Oeste 0 919.3 -- 94
2020-05-18 06:00:00 6.6 2 Noroeste 6 Norte 0 919.3 -- 93
2020-05-18 05:00:00 7.2 3 Norte 6 Norte 0 919.2 -- 92
2020-05-18 04:00:00 7.6 2 Norte 5 Norte 0 919.4 -- 92
2020-05-18 03:00:00 8.6 2 Noroeste 8 Norte 0 919.7 -- 91
2020-05-18 02:00:00 9.4 4 Norte 6 Noroeste 0 919.9 -- 90
2020-05-18 01:00:00 11 3 Noroeste 6 Noroeste 0 919.9 -- 83
2020-05-18 00:00:00 12.2 3 Noroeste 9 Oeste 0 919.7 -- 81
2020-05-17 23:00:00 13.5 3 Oeste 6 Noroeste 0 919.4 -- 74
2020-05-17 22:00:00 15.2 4 Noroeste 9 Norte 0 918.5 -- 68
2020-05-17 21:00:00 17.6 4 Nordeste 16 Noroeste 0 917.7 -- 55
2020-05-17 20:00:00 20.5 9 Noroeste 21 Oeste 0 917.2 -- 39
2020-05-17 19:00:00 21.2 6 Norte 17 Nordeste 0 916.8 -- 42
2020-05-17 18:00:00 20.9 9 Norte 23 Noroeste 0 916.7 -- 47
2020-05-17 17:00:00 20.7 8 Nordeste 24 Nordeste 0 916.8 -- 45
2020-05-17 16:00:00 19.5 8 Nordeste 22 Norte 0 917.3 -- 49
2020-05-17 15:00:00 19.4 8 Noroeste 20 Noroeste 0 917.7 -- 49
2020-05-17 14:00:00 18.9 7 Noroeste 13 Noroeste 0 917.9 -- 51
2020-05-17 13:00:00 17.5 7 Noroeste 15 Noroeste 0 918.5 -- 59
2020-05-17 12:00:00 14.9 5 Noroeste 13 Norte 0 918.8 -- 65
2020-05-17 11:00:00 14.1 5 Nordeste 14 Nordeste 0 918.7 -- 64
2020-05-17 10:00:00 12.1 5 Nordeste 13 Nordeste 0 918.8 -- 70
2020-05-17 09:00:00 10 5 Noroeste 12 Noroeste 0 918.7 -- 77
2020-05-17 08:00:00 9.7 3 Noroeste 8 Noroeste 0 918.2 -- 80
2020-05-17 07:00:00 9.2 4 Norte 15 Norte 0 918 -- 80
2020-05-17 06:00:00 9.4 5 Norte 14 Norte 0 917.5 -- 78
2020-05-17 05:00:00 9.7 6 Norte 14 Norte 0 917.5 -- 76
2020-05-17 04:00:00 10 4 Noroeste 12 Noroeste 0 917.4 -- 77
2020-05-17 03:00:00 9.6 3 Norte 12 Noroeste 0 917.5 -- 79
2020-05-17 02:00:00 10.3 4 Norte 13 Norte 0 917.8 -- 78
2020-05-17 01:00:00 10.8 5 Noroeste 15 Noroeste 0 917.8 -- 81
2020-05-17 00:00:00 11.1 5 Norte 24 Norte 0 917.5 -- 77
2020-05-16 23:00:00 11.7 7 Noroeste 16 Oeste 0 916.9 -- 82
2020-05-16 22:00:00 12 7 Noroeste 15 Noroeste 0 916.2 -- 82
2020-05-16 21:00:00 12.4 5 Noroeste 16 Noroeste 0 915.9 -- 82
2020-05-16 20:00:00 12.7 7 Norte 21 Norte 0 915.4 -- 79
2020-05-16 19:00:00 14 7 Noroeste 25 Norte 0 915 -- 71
2020-05-16 18:00:00 15.1 14 Noroeste 27 Noroeste 0 914.6 -- 69
2020-05-16 17:00:00 14.9 8 Nordeste 31 Noroeste 0 914.2 -- 66
2020-05-16 16:00:00 16.3 12 Noroeste 33 Noroeste 0 914.1 -- 66
2020-05-16 15:00:00 15.6 13 Noroeste 34 Noroeste 0 914.3 -- 70
2020-05-16 14:00:00 15.1 13 Noroeste 30 Noroeste 0.2 914.7 -- 77
2020-05-16 13:00:00 14.2 11 Noroeste 25 Noroeste 0 915.1 -- 74
2020-05-16 12:00:00 12.6 10 Oeste 21 Noroeste 0 915.2 -- 80
2020-05-16 11:00:00 11.9 8 Norte 18 Norte 0 914.9 -- 78
2020-05-16 10:00:00 10.5 9 Noroeste 18 Noroeste 0 914.7 -- 87
2020-05-16 09:00:00 9.7 7 Noroeste 15 Noroeste 0 914.3 -- 89
2020-05-16 08:00:00 9.4 6 Noroeste 12 Noroeste 0 913.8 -- 93
2020-05-16 07:00:00 9 6 Oeste 16 Noroeste 0 913.5 -- 95
2020-05-16 06:00:00 9.3 8 Noroeste 17 Oeste 0 913.3 -- 94
2020-05-16 05:00:00 9.9 3 Noroeste 8 Norte 0 913.2 -- 93
2020-05-16 04:00:00 9.8 2 Nordeste 9 Oeste 0 913.2 -- 94
2020-05-16 03:00:00 10 4 Oeste 8 Noroeste 0 913.2 -- 95
2020-05-16 02:00:00 10 3 Nordeste 8 Norte 1.8 913.5 -- 95
2020-05-16 01:00:00 10.3 4 Sudoeste 11 Noroeste 0.8 913.8 -- 95
2020-05-16 00:00:00 10.5 4 Noroeste 19 Nordeste 0 913.4 -- 90
2020-05-15 23:00:00 10.3 6 Nordeste 13 Norte 0.2 912.9 -- 93
2020-05-15 22:00:00 10.5 4 Nordeste 16 Nordeste 0.2 912.4 -- 93
2020-05-15 21:00:00 10.7 8 Nordeste 15 Nordeste 0.6 911.8 -- 93
2020-05-15 20:00:00 11 6 Nordeste 16 Nordeste 1.4 911.2 -- 93
2020-05-15 19:00:00 11.6 5 Nordeste 13 Nordeste 0.8 911 -- 91
2020-05-15 18:00:00 11.6 6 Nordeste 14 Norte 4 910.5 -- 92
2020-05-15 17:00:00 14.2 6 Este 21 Norte 0 910 -- 83
2020-05-15 16:00:00 14.3 6 Oeste 17 Oeste 0.4 910.4 -- 86
2020-05-15 15:00:00 13.2 7 Oeste 26 Sur 3.4 910.5 -- 82
2020-05-15 14:00:00 16.3 5 Norte 18 Norte 0 910.2 -- 58
2020-05-15 13:00:00 16.4 8 Nordeste 18 Este 0 910.6 -- 62
2020-05-15 12:00:00 15.4 9 Nordeste 21 Nordeste 0 910.6 -- 65
2020-05-15 11:00:00 14.1 7 Nordeste 17 Nordeste 0 910.7 -- 72
2020-05-15 10:00:00 13.7 6 Nordeste 15 Nordeste 0 910.4 -- 77
2020-05-15 09:00:00 11.1 3 Sur 5 Sur 0 910.4 -- 85
2020-05-15 08:00:00 8.5 0 Calma 6 Norte 0 909.9 -- 95
2020-05-15 07:00:00 8.2 3 Norte 6 Norte 0 909 -- 95
2020-05-15 06:00:00 8.3 3 Nordeste 8 Nordeste 0 908.5 -- 94
2020-05-15 05:00:00 8.5 3 Sudoeste 7 Nordeste 0 908.1 -- 96
2020-05-15 04:00:00 8.3 3 Nordeste 6 Nordeste 0 908.2 -- 96
2020-05-15 03:00:00 8.5 3 Sur 12 Sudoeste 0 908.2 -- 94
2020-05-15 02:00:00 8.7 3 Oeste 4 Nordeste 0 908 -- 93
2020-05-15 01:00:00 8.7 2 Nordeste 4 Nordeste 0 907.9 -- 95
2020-05-15 00:00:00 8.9 0 Calma 8 Este 0.4 907.9 -- 94
2020-05-14 23:00:00 9.1 3 Nordeste 8 Norte 0.6 907.4 -- 93
2020-05-14 22:00:00 9.8 3 Nordeste 7 Nordeste 0 906.7 -- 92
2020-05-14 21:00:00 10.3 0 Calma 6 Sur 0 905.9 -- 90
2020-05-14 20:00:00 10.8 0 Calma 5 Oeste 0.2 904.9 -- 87
2020-05-14 19:00:00 11.1 2 Sudoeste 17 Oeste 0.2 904.4 -- 80
2020-05-14 18:00:00 11.4 8 Oeste 19 Sudoeste 0 903.9 -- 78
2020-05-14 17:00:00 11.5 8 Oeste 18 Oeste 0.2 903.3 -- 79
2020-05-14 16:00:00 11.3 4 Oeste 18 Oeste 0 903 -- 81
2020-05-14 15:00:00 10.7 9 Noroeste 27 Noroeste 3 902.8 -- 89
2020-05-14 14:00:00 11.6 4 Noroeste 16 Sur 2 902.5 -- 89
2020-05-14 13:00:00 12.9 8 Sur 18 Sudeste 0.2 902.2 -- 84
2020-05-14 12:00:00 12 6 Sur 12 Sur 0 902.2 -- 86
2020-05-14 11:00:00 10.4 0 Calma 3 Sur 0.2 902.1 -- 91
2020-05-14 10:00:00 9.5 0 Calma 9 Oeste 0 902.1 -- 89
2020-05-14 09:00:00 8.7 3 Noroeste 6 Nordeste 0 902.1 -- 92
2020-05-14 08:00:00 7.8 2 Noroeste 5 Noroeste 0 902.3 -- 94
2020-05-14 07:00:00 7.7 3 Noroeste 6 Norte 0 902.2 -- 94
2020-05-14 06:00:00 7.3 3 Oeste 10 Oeste 0 902.2 -- 94
2020-05-14 05:00:00 7.5 5 Oeste 9 Oeste 0 902.6 -- 94
2020-05-14 04:00:00 7.7 4 Oeste 8 Oeste 0 902.6 -- 93
2020-05-14 03:00:00 8.1 5 Oeste 8 Noroeste 0 903.2 -- 90
2020-05-14 02:00:00 8.4 3 Noroeste 8 Norte 0 903.3 -- 90
2020-05-14 01:00:00 8.3 6 Oeste 8 Oeste 0 904.2 -- 93
2020-05-14 00:00:00 9 2 Norte 5 Sudoeste 0 904.4 -- 90
2020-05-13 23:00:00 10.4 0 Calma 8 Oeste 0 904.5 -- 85
2020-05-13 22:00:00 12.4 2 Oeste 4 Norte 0 904.2 -- 77
2020-05-13 21:00:00 14.5 2 Norte 4 Nordeste 0 904 -- 67
2020-05-13 20:00:00 16.1 3 Nordeste 7 Noroeste 0 903.7 -- 58
2020-05-13 19:00:00 16.6 4 Norte 13 Noroeste 0 903.3 -- 52
2020-05-13 18:00:00 16.8 5 Nordeste 13 Norte 0 903.5 -- 55
2020-05-13 17:00:00 17.4 4 Nordeste 15 Norte 0 903.5 -- 52
2020-05-13 16:00:00 16.5 5 Norte 9 Nordeste 0 904 -- 62
2020-05-13 15:00:00 15.8 2 Sudeste -- -- -- 904.1 -- 63
2020-05-13 14:00:00 -- -- -- -- -- -- 904.4 -- --
2020-05-13 13:00:00 -- -- -- -- -- 0 904.3 -- --
2020-05-13 12:00:00 -- -- -- -- -- 0 -- -- --
2020-05-13 11:00:00 13.6 9 Oeste 16 Oeste 0 904.2 -- 65
2020-05-13 10:00:00 12.5 7 Sur 13 Sur 0 -- -- 75
2020-05-13 09:00:00 9.4 0 Calma 7 Nordeste 0 904.2 -- 91
2020-05-13 08:00:00 8.3 2 Sudoeste 8 Noroeste 0 903.7 -- 94
2020-05-13 07:00:00 7.4 4 Nordeste 9 Sur 0 903.6 -- 95
2020-05-13 06:00:00 6.7 5 Nordeste 10 Sur 0 903.3 -- 96
2020-05-13 05:00:00 6.6 3 Nordeste 12 Sur 0 903.2 -- 95
2020-05-13 04:00:00 7.1 6 Sur 12 Sur 0 903.4 -- 94
2020-05-13 03:00:00 7.7 3 Sur 10 Este 0 903.9 -- 95
2020-05-13 02:00:00 7.5 3 Nordeste 8 Nordeste 0 904.6 -- 96
2020-05-13 01:00:00 8.5 4 Sur 14 Sur 0.2 904.9 -- 93
2020-05-13 00:00:00 9 4 Sudeste 13 Sur 0.2 905.6 -- 93
2020-05-12 23:00:00 9.6 6 Sur 20 Sudoeste 1.4 906.2 -- 92
2020-05-12 22:00:00 10.8 16 Sudoeste 27 Oeste 3 905.2 -- 85
2020-05-12 21:00:00 12.5 11 Sur 26 Sur 0 904.3 -- 83
2020-05-12 20:00:00 12.7 6 Sudeste 18 Sur 0 904.2 -- 82
2020-05-12 19:00:00 12.8 7 Este 21 Este 0 904.7 -- 82
2020-05-12 18:00:00 13.7 5 Sudeste 19 Este 0.6 905 -- 84
2020-05-12 17:00:00 14.4 6 Sur 21 Sudeste 0.8 905.6 -- 77
2020-05-12 16:00:00 16.8 3 Noroeste 12 Oeste 0 905 -- 63
2020-05-12 15:00:00 16.6 6 Norte 18 Norte 0 906 -- 65
2020-05-12 14:00:00 13.8 5 Noroeste 14 Oeste 0.2 907.3 -- 79
2020-05-12 13:00:00 14 6 Noroeste 14 Noroeste 0 907.8 -- 72
2020-05-12 12:00:00 12 5 Oeste 11 Sudoeste 0 908.1 -- 84
2020-05-12 11:00:00 11 3 Nordeste 6 Norte 0 908.4 -- 84
2020-05-12 10:00:00 9.8 3 Norte 9 Norte 0 908.3 -- 87
2020-05-12 09:00:00 8.9 3 Oeste 6 Oeste 0 908.9 -- 88
2020-05-12 08:00:00 7.3 4 Noroeste 9 Norte 0 909.1 -- 92
2020-05-12 07:00:00 6.7 2 Sudoeste 6 Nordeste 0 909.4 -- 91
2020-05-12 06:00:00 6.8 0 Calma 10 Este 0 909.4 -- 92
2020-05-12 05:00:00 6.4 5 Norte 10 Noroeste 0 908.6 -- 94
2020-05-12 04:00:00 7.1 3 Nordeste 8 Oeste 0 908.6 -- 91
2020-05-12 03:00:00 7.6 4 Noroeste 8 Norte 0 908.8 -- 90
2020-05-12 02:00:00 8.2 2 Noroeste 6 Nordeste 0 909.4 -- 87
2020-05-12 01:00:00 9.3 0 Calma 8 Noroeste 0 909.6 -- 83
2020-05-12 00:00:00 10.6 5 Norte 9 Norte 0 909.4 -- 79
2020-05-11 23:00:00 12 3 Nordeste 18 Sudoeste 0 909.4 -- 69
2020-05-11 22:00:00 13.7 8 Sudoeste 23 Oeste 0 908.7 -- 62
2020-05-11 21:00:00 15.6 11 Oeste 30 Oeste 0 907.9 -- 54
2020-05-11 20:00:00 15.9 11 Noroeste 30 Noroeste 0 907.2 -- 56
2020-05-11 19:00:00 17.8 8 Sudoeste 26 Sudoeste 0 906.7 -- 53
2020-05-11 18:00:00 16.8 14 Sudoeste 33 Oeste 0 906.6 -- 56
2020-05-11 17:00:00 18.8 8 Sudoeste 32 Sudoeste 0 906 -- 44
2020-05-11 16:00:00 18.9 13 Oeste 33 Sudoeste 0 906.1 -- 41
2020-05-11 15:00:00 18.1 21 Oeste 38 Oeste 0 906.4 -- 42
2020-05-11 14:00:00 18.2 12 Noroeste 39 Oeste 0 906.2 -- 42
2020-05-11 13:00:00 17.4 18 Oeste 37 Oeste 0 906.4 -- 43
2020-05-11 12:00:00 17.1 19 Oeste 37 Oeste 0 906.3 -- 44
2020-05-11 11:00:00 16.2 14 Sudoeste 30 Oeste 0 905.9 -- 50
2020-05-11 10:00:00 13.7 8 Oeste 26 Oeste 0 905.7 -- 56
2020-05-11 09:00:00 10.9 3 Este 8 Norte 0 905.7 -- 77
2020-05-11 08:00:00 6.7 0 Calma 6 Noroeste 0 905.6 -- 92
2020-05-11 07:00:00 5.6 0 Calma 7 Este 0 904.9 -- 90
2020-05-11 06:00:00 6.3 4 Este 9 Este 0 904.7 -- 91
2020-05-11 05:00:00 7.2 3 Sudeste 8 Sudeste 0 904.6 -- 87
2020-05-11 04:00:00 8.1 4 Este 14 Oeste 0 904.4 -- 83
2020-05-11 03:00:00 8.6 3 Nordeste 14 Nordeste 0 904.6 -- 80
2020-05-11 02:00:00 9.2 2 Sur 5 Sudoeste 0 904.8 -- 77
2020-05-11 01:00:00 10.7 3 Oeste 8 Sudoeste 0 904.9 -- 72
2020-05-11 00:00:00 11.2 4 Sudoeste 16 Oeste 0 904.8 -- 67
2020-05-10 23:00:00 11.3 2 Sudeste 6 Este 0 904.4 -- 66
2020-05-10 22:00:00 12.8 0 Calma 26 Sudoeste 0 904 -- 59
2020-05-10 21:00:00 15 14 Oeste 36 Oeste 0 903.3 -- 49
2020-05-10 20:00:00 16.9 9 Oeste 22 Oeste 0 902.4 -- 40
2020-05-10 19:00:00 16.5 6 Oeste 30 Noroeste 0 902.2 -- 47
2020-05-10 18:00:00 16.2 11 Norte 31 Noroeste 0 902.3 -- 51
2020-05-10 17:00:00 17.9 15 Noroeste 36 Oeste 0 902.1 -- 38
2020-05-10 16:00:00 16.2 14 Oeste 40 Noroeste 0 902.5 -- 46
2020-05-10 15:00:00 16.8 16 Noroeste 45 Oeste 0 902.7 -- 44
2020-05-10 14:00:00 15.4 14 Oeste 36 Noroeste 0 902.9 -- 49
2020-05-10 13:00:00 15.1 13 Oeste 30 Oeste 0 902.9 -- 58
2020-05-10 12:00:00 15.2 14 Oeste 26 Oeste 0 902.6 -- 59
2020-05-10 11:00:00 14.3 13 Sudoeste 33 Oeste 0 902.8 -- 63
2020-05-10 10:00:00 14.1 8 Oeste 15 Oeste 0 903 -- 67
2020-05-10 09:00:00 12.6 2 Sudoeste 5 Oeste 0 903.7 -- 91
2020-05-10 08:00:00 12 4 Oeste 7 Oeste 0.2 903.9 -- 93
2020-05-10 07:00:00 12.2 2 Sudeste 5 Noroeste 0 903.6 -- 92
2020-05-10 06:00:00 12.6 0 Calma 9 Sudeste 0 903.7 -- 94
2020-05-10 05:00:00 12.9 4 Sudeste 10 Sur 0.4 904.3 -- 94
2020-05-10 04:00:00 13.6 5 Sur 11 Sur 0.2 905.1 -- 93
2020-05-10 03:00:00 13.6 5 Sur 16 Sur 0.2 905.4 -- 94
2020-05-10 02:00:00 13.6 6 Sur 14 Sur 0.4 906.3 -- 94
2020-05-10 01:00:00 13.7 7 Sur 18 Sur 0 907 -- 92
2020-05-10 00:00:00 13.7 2 Nordeste 26 Sur 0 907 -- 91
2020-05-09 23:00:00 14.6 10 Sur 23 Sur 0 907.9 -- 88
2020-05-09 22:00:00 15.3 0 Calma 9 Sudoeste 0 907.4 -- 90
2020-05-09 21:00:00 16.6 5 Sudoeste 30 Este 2.4 907.2 -- 87
2020-05-09 20:00:00 18.3 13 Este 31 Este 0 906.4 -- 75
2020-05-09 19:00:00 22.9 9 Sur 27 Sur 0.2 906.1 -- 51
2020-05-09 18:00:00 23.9 15 Sur 27 Sur 0 906.3 -- 40
2020-05-09 17:00:00 23.4 14 Sur 32 Sur 0 906.7 -- 40
2020-05-09 16:00:00 24 13 Sudoeste 29 Sur 0 907.5 -- 40
2020-05-09 15:00:00 24.7 16 Sur 32 Sur 0 907.9 -- 43
2020-05-09 14:00:00 24.2 17 Sur 32 Sur 0 908.4 -- 46
2020-05-09 13:00:00 23.2 13 Sur 25 Sur 0 909.1 -- 49
2020-05-09 12:00:00 21.6 6 Sur 15 Sur 0 909.8 -- 54
2020-05-09 11:00:00 19.4 4 Sudeste 11 Sudeste 0 910.1 -- 64
2020-05-09 10:00:00 16.9 4 Sur 7 Sudeste 0 910.2 -- 73
2020-05-09 09:00:00 14.9 3 Sur 15 Este 0 910.2 -- 80
2020-05-09 08:00:00 12.6 5 Noroeste 9 Oeste 0 910.4 -- 95
2020-05-09 07:00:00 12.3 2 Nordeste 13 Sur 0 911 -- 93
2020-05-09 06:00:00 12.4 4 Sur 14 Sudoeste 0 911.5 -- 94
2020-05-09 05:00:00 12.6 5 Sudoeste 15 Sur 2.2 911.5 -- 94
2020-05-09 04:00:00 12.9 6 Sudoeste 14 Sudoeste 0.2 911.6 -- 89
2020-05-09 03:00:00 13.2 4 Sur 13 Sur 0 912.1 -- 89
2020-05-09 02:00:00 13.3 6 Sur 19 Sur 0 912.8 -- 90
2020-05-09 01:00:00 14.1 7 Sur 16 Sur 0 912.7 -- 86
2020-05-09 00:00:00 14.9 4 Sur 13 Este 0 912.5 -- 80
2020-05-08 23:00:00 15.9 4 Este 13 Sur 0 912.5 -- 77
2020-05-08 22:00:00 17.3 5 Sur 16 Sudeste 0 912.2 -- 69
2020-05-08 21:00:00 19.1 5 Sudeste 22 Este 0 912 -- 55
2020-05-08 20:00:00 22.4 9 Sudeste 23 Sur 0 911.5 -- 48
2020-05-08 19:00:00 24.8 11 Sur 30 Sur 0 911.3 -- 45
2020-05-08 18:00:00 25 13 Sur 27 Sur 0 911.3 -- 35
2020-05-08 17:00:00 24.6 9 Sudeste 26 Sudeste 0 911.5 -- 41
2020-05-08 16:00:00 24.5 10 Este 23 Este 0 912.1 -- 36
2020-05-08 15:00:00 24.7 9 Sudeste 35 Sudeste 0 912.6 -- 41
2020-05-08 14:00:00 24.1 20 Sur 40 Sudoeste 0 913.9 -- 38
2020-05-08 13:00:00 23.7 6 Sudeste 19 Sudeste 0 913.2 -- 34
2020-05-08 12:00:00 20 5 Sudeste 15 Oeste 0 914 -- 50
2020-05-08 11:00:00 16.8 6 Oeste 13 Sur 0 914.4 -- 66
2020-05-08 10:00:00 14.8 5 Sur 14 Sur 0 915.3 -- 77
2020-05-08 09:00:00 12.6 2 Sudoeste 6 Este 0 915.2 -- 80
2020-05-08 08:00:00 8.6 3 Norte 8 Nordeste 0 915.6 -- 92
2020-05-08 07:00:00 7.9 4 Oeste 5 Oeste 0 914.8 -- 92
2020-05-08 06:00:00 8.6 2 Oeste 7 Noroeste 0 914.8 -- 90
2020-05-08 05:00:00 9 3 Noroeste 7 Oeste 0 915.1 -- 89
2020-05-08 04:00:00 10.6 2 Oeste 6 Oeste 0 915.5 -- 84
2020-05-08 03:00:00 12.4 0 Calma 6 Este 0 915.9 -- 82
2020-05-08 02:00:00 13.4 4 Sur 12 Sur 0 916.4 -- 77
2020-05-08 01:00:00 14.1 3 Sudeste 10 Sur 0 916.3 -- 72
2020-05-08 00:00:00 14.7 3 Este 12 Sur 0 916.7 -- 69
2020-05-07 23:00:00 15.7 7 Sur 17 Sur 0 916.9 -- 63
2020-05-07 22:00:00 17.3 7 Sur 29 Sur 0 916.4 -- 57
2020-05-07 21:00:00 18.4 8 Sudeste 25 Sudeste 0 915.4 -- 54
2020-05-07 20:00:00 20.1 8 Sudeste 30 Sudeste 0 915.2 -- 50
2020-05-07 19:00:00 20.7 8 Sudeste 28 Este 0 914.9 -- 47
2020-05-07 18:00:00 21.9 12 Este 31 Este 0 914.6 -- 45
2020-05-07 17:00:00 23.7 13 Este 32 Sudeste 0 914.7 -- 41
2020-05-07 16:00:00 24.3 11 Este 36 Sudeste 0 915.1 -- 40
2020-05-07 15:00:00 24.4 9 Este 32 Este 0 915.6 -- 40
2020-05-07 14:00:00 24.4 11 Este 32 Este 0 916.2 -- 41
2020-05-07 13:00:00 24 8 Este 33 Este 0 916.4 -- 45
2020-05-07 12:00:00 22.4 11 Este 31 Este 0 916.5 -- 51
2020-05-07 11:00:00 19.9 7 Sur 13 Sur 0 916.5 -- 58
2020-05-07 10:00:00 17.8 3 Sur 7 Sudoeste 0 916.6 -- 66
2020-05-07 09:00:00 13.8 3 Oeste 5 Oeste 0 916.5 -- 80
2020-05-07 08:00:00 10.8 2 Noroeste 11 Oeste 0 916.4 -- 90
2020-05-07 07:00:00 9.9 3 Noroeste 8 Norte 0 915.8 -- 93
2020-05-07 06:00:00 10.8 3 Oeste 6 Oeste 0 916 -- 91
2020-05-07 05:00:00 11.5 0 Calma 5 Este 0 916.3 -- 89
2020-05-07 04:00:00 11.7 3 Oeste 8 Oeste 0 916.4 -- 87
2020-05-07 03:00:00 12.3 4 Oeste 7 Oeste 0 916.6 -- 87
2020-05-07 02:00:00 13.4 6 Oeste 9 Oeste 0 917.2 -- 84
2020-05-07 01:00:00 15.4 3 Oeste 10 Sudeste 0 917.1 -- 77
2020-05-07 00:00:00 15.8 4 Nordeste 10 Sur 0 916.7 -- 79
2020-05-06 23:00:00 17 4 Este 11 Sudeste 0 916.4 -- 75
2020-05-06 22:00:00 18.4 4 Sudeste 15 Este 0 915.7 -- 69
2020-05-06 21:00:00 20 6 Este 25 Sudeste 0 914.8 -- 64
2020-05-06 20:00:00 23.1 8 Este 32 Este 0 913.6 -- 54
2020-05-06 19:00:00 25 12 Este 28 Este 0 913.3 -- 47
2020-05-06 18:00:00 28 12 Sur 25 Sur 0 913.1 -- 39
2020-05-06 17:00:00 28.7 10 Sur 30 Sur 0 913.2 -- 24
2020-05-06 16:00:00 27 10 Sur 24 Sudoeste 0 914 -- 30
2020-05-06 15:00:00 24.8 3 Sur 14 Sudeste 0 914.6 -- 28
2020-05-06 14:00:00 25.2 3 Oeste 13 Sudoeste 0 915.1 -- 30
2020-05-06 13:00:00 23.4 4 Nordeste 11 Nordeste 0 915.6 -- 36
2020-05-06 12:00:00 21.5 5 Este 10 Este 0 915.9 -- 38
2020-05-06 11:00:00 19.3 2 Sur 6 Nordeste 0 916.2 -- 42
2020-05-06 10:00:00 15 2 Sudoeste 6 Sudoeste 0 916.3 -- 53
2020-05-06 09:00:00 11 2 Noroeste 7 Nordeste 0 916.3 -- 66
2020-05-06 08:00:00 7.5 2 Norte 8 Nordeste 0 916 -- 80
2020-05-06 07:00:00 6.8 4 Norte 8 Nordeste 0 915.4 -- 82
2020-05-06 06:00:00 7.2 3 Norte 8 Norte 0 915 -- 82
2020-05-06 05:00:00 8 3 Norte 7 Norte 0 915.1 -- 80
2020-05-06 04:00:00 9 3 Noroeste 9 Nordeste 0 914.9 -- 75
2020-05-06 03:00:00 9.9 4 Oeste 7 Oeste 0 914.7 -- 74
2020-05-06 02:00:00 10.8 3 Norte 10 Norte 0 915 -- 70
2020-05-06 01:00:00 12.1 5 Norte 12 Nordeste 0 915.1 -- 64
2020-05-06 00:00:00 13.5 5 Norte 12 Oeste 0 914.8 -- 60
2020-05-05 23:00:00 15.8 3 Noroeste 8 Nordeste 0 914.6 -- 52
2020-05-05 22:00:00 18.3 4 Norte 9 Nordeste 0 914.2 -- 41
2020-05-05 21:00:00 22.3 6 Noroeste 22 Oeste 0 913.4 -- 30
2020-05-05 20:00:00 24.9 13 Oeste 29 Oeste 0 912.8 -- 23
2020-05-05 19:00:00 26 12 Sudoeste 27 Sudoeste 0 912.4 -- 22
2020-05-05 18:00:00 25.1 14 Sur 31 Sur 0 912.5 -- 23
2020-05-05 17:00:00 25.8 13 Sur 28 Sur 0 912.5 -- 25
2020-05-05 16:00:00 24.9 14 Sudoeste 34 Sur 0 913 -- 28
2020-05-05 15:00:00 24.5 13 Sur 29 Sur 0 912.9 -- 30
2020-05-05 14:00:00 24.9 7 Sudoeste 19 Sur 0 913.1 -- 40
2020-05-05 13:00:00 24 7 Oeste 13 Oeste 0 913.2 -- 44
2020-05-05 12:00:00 23.6 5 Sudeste 12 Sur 0 913.5 -- 40
2020-05-05 11:00:00 20.6 3 Oeste 6 Sur 0 913.6 -- 50
2020-05-05 10:00:00 17.4 3 Sur 8 Sur 0 913.7 -- 65
2020-05-05 09:00:00 13.6 0 Calma 6 Nordeste 0 913.9 -- 81
2020-05-05 08:00:00 10.1 2 Sudoeste 12 Oeste 0 913.7 -- 92
2020-05-05 07:00:00 10.1 3 Noroeste 8 Oeste 0 913.3 -- 91
2020-05-05 06:00:00 10.4 5 Norte 8 Nordeste 0 912.9 -- 90
2020-05-05 05:00:00 11.3 0 Calma 8 Oeste 0 912.7 -- 86
2020-05-05 04:00:00 12 3 Nordeste 5 Norte 0 912.2 -- 85
2020-05-05 03:00:00 13.3 0 Calma 7 Norte 0 912.7 -- 80
2020-05-05 02:00:00 14.9 0 Calma 6 Nordeste 0 913.4 -- 74
2020-05-05 01:00:00 16.4 3 Noroeste 6 Noroeste 0 913.7 -- 66
2020-05-05 00:00:00 17.9 3 Sudeste 10 Sudeste 0 914.1 -- 60
2020-05-04 23:00:00 19.2 5 Sur 20 Sur 0 913.9 -- 54
2020-05-04 22:00:00 20.5 12 Sur 23 Sudeste 0 913 -- 54
2020-05-04 21:00:00 22.4 8 Sudeste 23 Este 0 912.1 -- 49
2020-05-04 20:00:00 25.5 6 Sudeste 26 Sudeste 0 911.6 -- 43
2020-05-04 19:00:00 27.2 6 Sudeste 26 Este 0 911.6 -- 40
2020-05-04 18:00:00 27.1 7 Sudeste 27 Sudeste 0 911.8 -- 36
2020-05-04 17:00:00 28 9 Sudeste 26 Sur 0 912.1 -- 29
2020-05-04 16:00:00 29.8 9 Sur 30 Sur 0 912.5 -- 26
2020-05-04 15:00:00 29 15 Sur 33 Sudoeste 0 912.9 -- 26
2020-05-04 14:00:00 27.6 16 Sudoeste 29 Sur 0 913.2 -- 33
2020-05-04 13:00:00 26.2 8 Sur 26 Sur 0 913.5 -- 42
2020-05-04 12:00:00 24.3 13 Sur 22 Sudeste 0 914.3 -- 42
2020-05-04 11:00:00 20.7 7 Sur 12 Sur 0 914.2 -- 60
2020-05-04 10:00:00 17.4 3 Sudoeste 6 Este 0 914.4 -- 68
2020-05-04 09:00:00 13.4 0 Calma 6 Oeste 0 914.6 -- 85
2020-05-04 08:00:00 10.4 5 Oeste 7 Oeste 0 914.5 -- 91
2020-05-04 07:00:00 10 0 Calma 6 Oeste 0 914.4 -- 92
2020-05-04 06:00:00 10.2 4 Oeste 10 Oeste 0 914.6 -- 90
2020-05-04 05:00:00 11.6 2 Noroeste 6 Norte 0 914.7 -- 86
2020-05-04 04:00:00 12.2 0 Calma 4 Sudoeste 0 914.9 -- 85
2020-05-04 03:00:00 13.1 2 Norte 6 Norte 0 915.4 -- 82
2020-05-04 02:00:00 14.9 2 Norte 8 Sudeste 0 915.8 -- 76
2020-05-04 01:00:00 16.4 3 Sudeste 10 Sur 0 916.1 -- 70
2020-05-04 00:00:00 17.4 4 Sur 10 Sudeste 0 916 -- 67
2020-05-03 23:00:00 18.2 3 Nordeste 12 Este 0 915.7 -- 64
2020-05-03 22:00:00 19.9 4 Sudeste 12 Sudeste 0 915.3 -- 59
2020-05-03 21:00:00 22 5 Sudeste 20 Sudeste 0 914.6 -- 53
2020-05-03 20:00:00 25.7 6 Sudeste 23 Sur 0 913.9 -- 45
2020-05-03 19:00:00 28.5 15 Sur 31 Sur 0 914 -- 31
2020-05-03 18:00:00 29 15 Sur 32 Sur 0 914.1 -- 25
2020-05-03 17:00:00 29.1 17 Sur 34 Sur 0 914.5 -- 26
2020-05-03 16:00:00 28.7 15 Sur 35 Sur 0 915.1 -- 24
2020-05-03 15:00:00 28.1 12 Sur 30 Sur 0 915.7 -- 28
2020-05-03 14:00:00 26.8 15 Sur 29 Sur 0 916.2 -- 34
2020-05-03 13:00:00 25.3 14 Sur 27 Sur 0 917.1 -- 34
2020-05-03 12:00:00 23.4 7 Sur 21 Sur 0 917.5 -- 46
2020-05-03 11:00:00 19.7 5 Sudeste 12 Este 0 917.7 -- 56
2020-05-03 10:00:00 16.1 4 Este 7 Este 0 918 -- 66
2020-05-03 09:00:00 12.3 3 Noroeste 5 Norte 0 918 -- 80
2020-05-03 08:00:00 9.2 2 Oeste 5 Norte 0 917.9 -- 91
2020-05-03 07:00:00 8.4 2 Noroeste 7 Norte 0 917.4 -- 92
2020-05-03 06:00:00 9.2 3 Noroeste 7 Noroeste 0 917.4 -- 89
2020-05-03 05:00:00 9.8 3 Norte 9 Oeste 0 917.4 -- 88
2020-05-03 04:00:00 10.3 3 Noroeste 4 Oeste 0 917.5 -- 86
2020-05-03 03:00:00 11.2 0 Calma 5 Norte 0 917.8 -- 82
2020-05-03 02:00:00 12.2 3 Noroeste 8 Oeste 0 918.1 -- 77
2020-05-03 01:00:00 13.3 3 Noroeste 8 Nordeste 0 917.9 -- 71
2020-05-03 00:00:00 14.3 3 Nordeste 8 Norte 0 918 -- 68
2020-05-02 23:00:00 16.4 3 Norte 7 Nordeste 0 917.8 -- 54
2020-05-02 22:00:00 17.4 3 Nordeste 5 Nordeste 0 917.3 -- 53
2020-05-02 21:00:00 21.4 4 Noroeste 16 Noroeste 0 916.7 -- 38
2020-05-02 20:00:00 25.6 6 Oeste 22 Noroeste 0 916.4 -- 30
2020-05-02 19:00:00 26.4 9 Noroeste 24 Oeste 0 916.3 -- 27
2020-05-02 18:00:00 26.5 14 Noroeste 27 Noroeste 0 916.1 -- 24
2020-05-02 17:00:00 26.7 14 Noroeste 31 Noroeste 0 916.2 -- 25
2020-05-02 16:00:00 26.7 12 Oeste 26 Sudoeste 0 916.5 -- 30
2020-05-02 15:00:00 25.5 6 Sur 14 Sur 0 916.9 -- 43
2020-05-02 14:00:00 24 5 Sudeste 12 Noroeste 0 917.3 -- 44
2020-05-02 13:00:00 22.4 5 Sudoeste 15 Norte 0 917.9 -- 48
2020-05-02 12:00:00 20.7 6 Oeste 14 Noroeste 0 918.3 -- 53
2020-05-02 11:00:00 18.8 6 Sur 10 Sur 0 918.4 -- 63
2020-05-02 10:00:00 16.3 3 Sur 6 Sudoeste 0 918.5 -- 67
2020-05-02 09:00:00 12.1 2 Sudoeste 5 Nordeste 0 918.6 -- 86
2020-05-02 08:00:00 9.3 0 Calma 5 Oeste 0 918.2 -- 93
2020-05-02 07:00:00 9.3 3 Oeste 6 Norte 0 917.9 -- 92
2020-05-02 06:00:00 10 0 Calma 9 Norte 0 917.7 -- 90
2020-05-02 05:00:00 10.2 3 Nordeste 6 Este 0 917.8 -- 91
2020-05-02 04:00:00 10.8 4 Nordeste 8 Nordeste 0 917.6 -- 90
2020-05-02 03:00:00 11 2 Sur 7 Noroeste 0 918 -- 88
2020-05-02 02:00:00 11.7 2 Oeste 6 Sudoeste 0 918.2 -- 85
2020-05-02 01:00:00 12.8 0 Calma 6 Sudoeste 0 918.1 -- 80
2020-05-02 00:00:00 14 2 Nordeste 5 Sudoeste 0 917.8 -- 74
2020-05-01 23:00:00 15.2 2 Sur 10 Oeste 0 917.5 -- 69
2020-05-01 22:00:00 16.9 4 Oeste 18 Oeste 0 917.2 -- 61
2020-05-01 21:00:00 18.3 8 Oeste 24 Oeste 0 916.3 -- 55
2020-05-01 20:00:00 20.8 12 Oeste 31 Oeste 0 915.8 -- 47
2020-05-01 19:00:00 20.9 12 Noroeste 36 Sudoeste 0 915.5 -- 46
2020-05-01 18:00:00 21.4 22 Oeste 48 Oeste 0 915.6 -- 46
2020-05-01 17:00:00 22.1 15 Oeste 43 Oeste 0 915.4 -- 45
2020-05-01 16:00:00 22.2 17 Oeste 42 Noroeste 0 915.3 -- 44
2020-05-01 15:00:00 21.8 19 Oeste 42 Oeste 0 915.8 -- 45
2020-05-01 14:00:00 21.5 15 Noroeste 34 Oeste 0 915.6 -- 46
2020-05-01 13:00:00 20.2 11 Noroeste 36 Oeste 0 916.1 -- 46
2020-05-01 12:00:00 20.5 19 Oeste 36 Oeste 0 916.1 -- 49
2020-05-01 11:00:00 18.1 8 Sur 14 Sur 0 915.7 -- 59
2020-05-01 10:00:00 15.2 5 Sudeste 13 Sur 0 915.8 -- 65
2020-05-01 09:00:00 11.3 4 Norte 12 Nordeste 0 916.4 -- 80
2020-05-01 08:00:00 7.4 3 Sur 8 Norte 0 915.8 -- 93
2020-05-01 07:00:00 7.3 2 Norte 7 Nordeste 0 915.9 -- 92
2020-05-01 06:00:00 8 2 Nordeste 8 Oeste 0 915.6 -- 90
2020-05-01 05:00:00 8.6 5 Norte 10 Norte 0 915.6 -- 87
2020-05-01 04:00:00 8.5 3 Sur 9 Oeste 0 915.2 -- 87
2020-05-01 03:00:00 10 3 Norte 11 Oeste 0 915.6 -- 80
2020-05-01 02:00:00 10.1 6 Oeste 8 Oeste 0 916 -- 81
2020-05-01 01:00:00 9.8 4 Oeste 8 Oeste 0 915.9 -- 83
2020-05-01 00:00:00 10.7 2 Sudoeste 9 Oeste 0 915.7 -- 79
2020-04-30 23:00:00 11.8 3 Noroeste 5 Noroeste 0 915.3 -- 72
2020-04-30 22:00:00 13.8 3 Noroeste 13 Oeste 0 914.8 -- 61
2020-04-30 21:00:00 15.7 5 Oeste 24 Oeste 0 914 -- 53
2020-04-30 20:00:00 17.5 11 Oeste 28 Oeste 0 913.6 -- 45
2020-04-30 19:00:00 19.1 10 Oeste 31 Oeste 0 913.3 -- 42
2020-04-30 18:00:00 17.4 13 Oeste 33 Oeste 0 913 -- 46
2020-04-30 17:00:00 17.5 10 Oeste 33 Sudoeste 0 913.2 -- 44
2020-04-30 16:00:00 17.9 12 Noroeste 30 Noroeste 0 913.4 -- 43
2020-04-30 15:00:00 17.9 15 Noroeste 32 Noroeste 0 913.4 -- 41
2020-04-30 14:00:00 17 14 Noroeste 33 Oeste 0 913.4 -- 42
2020-04-30 13:00:00 16.8 14 Oeste 59 Sudoeste 0 913.6 -- 44
2020-04-30 12:00:00 16.9 23 Oeste 40 Oeste 0 913.3 -- 46
2020-04-30 11:00:00 15.9 22 Oeste 44 Oeste 0 913.1 -- 49
2020-04-30 10:00:00 15.1 19 Oeste 36 Oeste 0 913 -- 55
2020-04-30 09:00:00 13.1 8 Sudoeste 16 Oeste 0 912.7 -- 60
2020-04-30 08:00:00 11.6 8 Sudoeste 22 Oeste 0 912.5 -- 63
2020-04-30 07:00:00 11.3 8 Sudoeste 24 Sur 0 912 -- 71
2020-04-30 06:00:00 11.8 13 Sudoeste 22 Sur 0 912.2 -- 71
2020-04-30 05:00:00 11 10 Sudoeste 17 Sudoeste 0 912.8 -- 74
2020-04-30 04:00:00 11 6 Sur 11 Sur 0 913 -- 73
2020-04-30 03:00:00 11.5 6 Sur 15 Sur 0 913.7 -- 70
2020-04-30 02:00:00 11 3 Sudeste 9 Sur 0 914.1 -- 69
2020-04-30 01:00:00 11.5 2 Sur 10 Este 0 914.2 -- 66
2020-04-30 00:00:00 12.4 2 Sudeste 13 Oeste 0 914.3 -- 59
2020-04-29 23:00:00 13.6 5 Norte 14 Oeste 0 914.2 -- 54
2020-04-29 22:00:00 14.9 8 Oeste 22 Oeste 0 913.7 -- 49
2020-04-29 21:00:00 16.2 13 Oeste 30 Oeste 0 913.1 -- 43
2020-04-29 20:00:00 18 12 Oeste 31 Oeste 0 912.9 -- 36
2020-04-29 19:00:00 19 14 Oeste 28 Oeste 0 912.9 -- 34
2020-04-29 18:00:00 19 10 Oeste 26 Oeste 0 912.8 -- 38
2020-04-29 17:00:00 19.1 10 Noroeste 31 Oeste 0 913 -- 36
2020-04-29 16:00:00 19.8 12 Oeste 24 Oeste 0 912.9 -- 38
2020-04-29 15:00:00 19.3 7 Norte 15 Norte 0 913.1 -- 38
2020-04-29 14:00:00 18.6 5 Este 12 Sur 0 913.6 -- 41
2020-04-29 13:00:00 17.1 4 Norte 15 Sur 0 914 -- 46
2020-04-29 12:00:00 15.2 5 Este 14 Norte 0 914.4 -- 49
2020-04-29 11:00:00 13.7 5 Norte 13 Noroeste 0 914.7 -- 57
2020-04-29 10:00:00 11.2 2 Sur 8 Nordeste 0 915 -- 67
2020-04-29 09:00:00 7.7 2 Noroeste 6 Nordeste 0 915.3 -- 83
2020-04-29 08:00:00 4.1 0 Calma 4 Noroeste 0 914.8 -- 96
2020-04-29 07:00:00 3.8 0 Calma 4 Oeste 0 914.2 -- 92
2020-04-29 06:00:00 4.5 2 Norte 5 Nordeste 0 913.8 -- 92
2020-04-29 05:00:00 5.5 3 Oeste 7 Nordeste 0 913.8 -- 90
2020-04-29 04:00:00 6.8 2 Norte 6 Nordeste 0 913.8 -- 86
2020-04-29 03:00:00 7.6 2 Oeste 8 Nordeste 0 914.1 -- 83
2020-04-29 02:00:00 7.4 4 Norte 12 Norte 0 914.2 -- 83
2020-04-29 01:00:00 8.2 5 Norte 8 Norte 0 913.9 -- 79
2020-04-29 00:00:00 9.6 4 Norte 8 Nordeste 0 913.7 -- 72
2020-04-28 23:00:00 11.5 2 Oeste 14 Noroeste 0 913.4 -- 59
2020-04-28 22:00:00 12.1 5 Oeste 11 Oeste 0 912.9 -- 55
2020-04-28 21:00:00 13.6 6 Oeste 23 Oeste 0 912 -- 47
2020-04-28 20:00:00 14.8 10 Oeste 22 Oeste 0 911.6 -- 45
2020-04-28 19:00:00 16.2 11 Oeste 24 Oeste 0 911 -- 39
2020-04-28 18:00:00 16.4 10 Oeste 28 Oeste 0 910.7 -- 40
2020-04-28 17:00:00 17.6 11 Noroeste 21 Noroeste 0 910.5 -- 36
2020-04-28 16:00:00 16.9 13 Oeste 26 Noroeste 0 910.8 -- 40
2020-04-28 15:00:00 16.1 9 Oeste 29 Sudoeste 0 911 -- 43
2020-04-28 14:00:00 15.8 11 Oeste 30 Noroeste 0 911.1 -- 42
2020-04-28 13:00:00 13.9 8 Noroeste 23 Oeste 0 911.4 -- 46
2020-04-28 12:00:00 13 12 Oeste 23 Oeste 0 911.6 -- 53
2020-04-28 11:00:00 12.7 3 Sur 9 Nordeste 0 911.2 -- 66
2020-04-28 10:00:00 11.3 4 Nordeste 8 Este 0 911 -- 81
2020-04-28 09:00:00 7.4 3 Sudeste 7 Sur 0 911.3 -- 96
2020-04-28 08:00:00 5.9 2 Oeste 7 Oeste 0 911.2 -- 96
2020-04-28 07:00:00 5.7 4 Oeste 5 Oeste 0 910.6 -- 94
2020-04-28 06:00:00 5.8 0 Calma 6 Norte 0 910.4 -- 97
2020-04-28 05:00:00 5.6 3 Nordeste 6 Nordeste 0 910.2 -- 95
2020-04-28 04:00:00 6 4 Oeste 12 Oeste 0 909.8 -- 95
2020-04-28 03:00:00 6.9 2 Oeste 5 Sudoeste 0 909.9 -- 93
2020-04-28 02:00:00 7.6 0 Calma 7 Nordeste 0 910.3 -- 93
2020-04-28 01:00:00 8.5 5 Oeste 8 Oeste 0 910 -- 89
2020-04-28 00:00:00 9.1 4 Sur 8 Sur 0 910.1 -- 92
2020-04-27 23:00:00 9.7 3 Este 10 Sur 0.6 909.8 -- 91
2020-04-27 22:00:00 10.4 8 Sur 13 Sur 0.4 909.6 -- 86
2020-04-27 21:00:00 11.6 8 Oeste 24 Oeste 0.6 908.6 -- 71
2020-04-27 20:00:00 13.9 7 Sudoeste 25 Noroeste 0 908 -- 66
2020-04-27 19:00:00 16.4 10 Oeste 21 Oeste 0 907.5 -- 47
2020-04-27 18:00:00 16.7 10 Sudoeste 24 Oeste 0 907.4 -- 44
2020-04-27 17:00:00 17.3 14 Oeste 27 Oeste 0 907.7 -- 44
2020-04-27 16:00:00 16.9 9 Oeste 17 Oeste 0 908 -- 46
2020-04-27 15:00:00 17.7 9 Sudoeste 22 Oeste 0 908 -- 46
2020-04-27 14:00:00 17.6 11 Sudoeste 22 Sur 0 908.3 -- 44
2020-04-27 13:00:00 16.2 7 Sudoeste 14 Sudoeste 0 908.8 -- 51
2020-04-27 12:00:00 14.7 4 Oeste 12 Oeste 0 909.3 -- 63
2020-04-27 11:00:00 14.4 4 Noroeste 10 Sudoeste 0 909.2 -- 70
2020-04-27 10:00:00 13.4 4 Sudeste 9 Sudeste 0 909 -- 89
2020-04-27 09:00:00 11.8 2 Sudeste 4 Sur 0.6 909 -- 95
2020-04-27 08:00:00 11.4 0 Calma 4 Este 0.2 909 -- 95
2020-04-27 07:00:00 11.4 2 Este 6 Oeste 0.2 908.6 -- 95
2020-04-27 06:00:00 11.6 0 Calma 4 Sudeste 0.2 908.7 -- 93
2020-04-27 05:00:00 11.6 0 Calma 4 Sudoeste 0.6 909 -- 95
2020-04-27 04:00:00 11.7 0 Calma 3 Este 0.4 909.1 -- 94
2020-04-27 03:00:00 11.6 0 Calma 5 Sudoeste 0 909.5 -- 94
2020-04-27 02:00:00 11.9 3 Sudeste 5 Sur 0 910 -- 93
2020-04-27 01:00:00 12.3 0 Calma 4 Oeste 0 910.2 -- 93
2020-04-27 00:00:00 12.2 0 Calma 6 Sudoeste 0.6 910.5 -- 92